sensor_id;sensor_type;location;lat;lon;timestamp;P1;durP1;ratioP1;P2;durP2;ratioP2
15624;SDS011;7912;51.376;6.126;2022-11-06T00:01:09;5.47;;;3.57;;
15624;SDS011;7912;51.376;6.126;2022-11-06T00:03:39;5.00;;;3.17;;
15624;SDS011;7912;51.376;6.126;2022-11-06T00:06:11;4.97;;;3.33;;
15624;SDS011;7912;51.376;6.126;2022-11-06T00:08:59;8.43;;;3.43;;
15624;SDS011;7912;51.376;6.126;2022-11-06T00:11:29;4.73;;;3.03;;
15624;SDS011;7912;51.376;6.126;2022-11-06T00:13:58;6.00;;;3.23;;
15624;SDS011;7912;51.376;6.126;2022-11-06T00:16:27;5.43;;;3.30;;
15624;SDS011;7912;51.376;6.126;2022-11-06T00:18:54;6.70;;;3.13;;
15624;SDS011;7912;51.376;6.126;2022-11-06T00:21:23;5.23;;;3.20;;
15624;SDS011;7912;51.376;6.126;2022-11-06T00:23:52;5.40;;;3.37;;
15624;SDS011;7912;51.376;6.126;2022-11-06T00:26:24;3.90;;;3.00;;
15624;SDS011;7912;51.376;6.126;2022-11-06T00:28:55;4.50;;;3.30;;
15624;SDS011;7912;51.376;6.126;2022-11-06T00:31:25;4.57;;;3.17;;
15624;SDS011;7912;51.376;6.126;2022-11-06T00:33:56;5.33;;;2.77;;
15624;SDS011;7912;51.376;6.126;2022-11-06T00:36:25;6.10;;;2.83;;
15624;SDS011;7912;51.376;6.126;2022-11-06T00:38:58;7.27;;;3.13;;
15624;SDS011;7912;51.376;6.126;2022-11-06T00:44:33;5.07;;;2.77;;
15624;SDS011;7912;51.376;6.126;2022-11-06T00:47:00;4.67;;;2.80;;
15624;SDS011;7912;51.376;6.126;2022-11-06T00:49:27;6.77;;;2.90;;
15624;SDS011;7912;51.376;6.126;2022-11-06T00:55:17;4.97;;;2.60;;
15624;SDS011;7912;51.376;6.126;2022-11-06T00:57:44;4.80;;;2.63;;
15624;SDS011;7912;51.376;6.126;2022-11-06T01:00:12;5.27;;;2.70;;
15624;SDS011;7912;51.376;6.126;2022-11-06T01:02:40;5.90;;;2.43;;
15624;SDS011;7912;51.376;6.126;2022-11-06T01:05:07;4.10;;;2.50;;
15624;SDS011;7912;51.376;6.126;2022-11-06T01:07:35;6.23;;;2.60;;
15624;SDS011;7912;51.376;6.126;2022-11-06T01:10:02;4.37;;;2.40;;
15624;SDS011;7912;51.376;6.126;2022-11-06T01:12:31;4.27;;;2.50;;
15624;SDS011;7912;51.376;6.126;2022-11-06T01:15:01;3.83;;;2.43;;
15624;SDS011;7912;51.376;6.126;2022-11-06T01:17:28;4.30;;;2.40;;
15624;SDS011;7912;51.376;6.126;2022-11-06T01:19:57;4.67;;;2.30;;
15624;SDS011;7912;51.376;6.126;2022-11-06T01:22:25;4.17;;;2.27;;
15624;SDS011;7912;51.376;6.126;2022-11-06T01:24:52;5.37;;;2.20;;
15624;SDS011;7912;51.376;6.126;2022-11-06T01:27:19;4.17;;;2.30;;
15624;SDS011;7912;51.376;6.126;2022-11-06T01:29:54;8.13;;;2.93;;
15624;SDS011;7912;51.376;6.126;2022-11-06T01:32:22;4.37;;;2.23;;
15624;SDS011;7912;51.376;6.126;2022-11-06T01:34:49;5.00;;;2.40;;
15624;SDS011;7912;51.376;6.126;2022-11-06T01:37:17;5.90;;;2.60;;
15624;SDS011;7912;51.376;6.126;2022-11-06T01:46:22;4.37;;;2.00;;
15624;SDS011;7912;51.376;6.126;2022-11-06T01:49:03;4.47;;;2.50;;
15624;SDS011;7912;51.376;6.126;2022-11-06T01:51:39;4.57;;;2.40;;
15624;SDS011;7912;51.376;6.126;2022-11-06T01:54:09;7.20;;;2.53;;
15624;SDS011;7912;51.376;6.126;2022-11-06T01:56:38;4.67;;;2.10;;
15624;SDS011;7912;51.376;6.126;2022-11-06T01:59:08;4.17;;;2.13;;
15624;SDS011;7912;51.376;6.126;2022-11-06T02:01:40;5.00;;;2.43;;
15624;SDS011;7912;51.376;6.126;2022-11-06T02:04:16;5.57;;;1.93;;
15624;SDS011;7912;51.376;6.126;2022-11-06T02:06:50;3.90;;;2.00;;
15624;SDS011;7912;51.376;6.126;2022-11-06T02:09:18;3.57;;;1.97;;
15624;SDS011;7912;51.376;6.126;2022-11-06T02:11:50;4.23;;;2.10;;
15624;SDS011;7912;51.376;6.126;2022-11-06T02:14:44;4.63;;;2.13;;
15624;SDS011;7912;51.376;6.126;2022-11-06T02:17:40;4.37;;;2.00;;
15624;SDS011;7912;51.376;6.126;2022-11-06T02:23:44;5.00;;;2.00;;
15624;SDS011;7912;51.376;6.126;2022-11-06T02:32:29;5.10;;;1.90;;
15624;SDS011;7912;51.376;6.126;2022-11-06T02:35:26;3.77;;;1.83;;
15624;SDS011;7912;51.376;6.126;2022-11-06T02:38:08;2.33;;;1.60;;
15624;SDS011;7912;51.376;6.126;2022-11-06T02:40:42;6.50;;;1.97;;
15624;SDS011;7912;51.376;6.126;2022-11-06T02:43:19;5.90;;;2.30;;
15624;SDS011;7912;51.376;6.126;2022-11-06T02:45:57;5.33;;;2.00;;
15624;SDS011;7912;51.376;6.126;2022-11-06T02:51:25;2.53;;;1.90;;
15624;SDS011;7912;51.376;6.126;2022-11-06T02:53:58;6.47;;;1.80;;
15624;SDS011;7912;51.376;6.126;2022-11-06T02:56:30;3.27;;;1.80;;
15624;SDS011;7912;51.376;6.126;2022-11-06T03:01:57;3.83;;;1.80;;
15624;SDS011;7912;51.376;6.126;2022-11-06T03:04:32;4.27;;;1.70;;
15624;SDS011;7912;51.376;6.126;2022-11-06T03:09:41;5.23;;;2.10;;
15624;SDS011;7912;51.376;6.126;2022-11-06T03:15:30;4.93;;;1.83;;
15624;SDS011;7912;51.376;6.126;2022-11-06T03:18:18;5.00;;;1.80;;
15624;SDS011;7912;51.376;6.126;2022-11-06T03:21:09;6.40;;;2.10;;
15624;SDS011;7912;51.376;6.126;2022-11-06T03:24:16;5.23;;;2.00;;
15624;SDS011;7912;51.376;6.126;2022-11-06T03:27:03;3.50;;;1.80;;
15624;SDS011;7912;51.376;6.126;2022-11-06T03:29:52;5.20;;;2.00;;
15624;SDS011;7912;51.376;6.126;2022-11-06T03:36:09;4.33;;;1.73;;
15624;SDS011;7912;51.376;6.126;2022-11-06T03:38:53;5.53;;;2.10;;
15624;SDS011;7912;51.376;6.126;2022-11-06T03:42:00;5.17;;;1.80;;
15624;SDS011;7912;51.376;6.126;2022-11-06T03:44:32;4.50;;;1.80;;
15624;SDS011;7912;51.376;6.126;2022-11-06T03:56:57;6.30;;;2.03;;
15624;SDS011;7912;51.376;6.126;2022-11-06T04:00:10;4.57;;;1.90;;
15624;SDS011;7912;51.376;6.126;2022-11-06T04:02:40;4.53;;;2.20;;
15624;SDS011;7912;51.376;6.126;2022-11-06T04:05:16;7.50;;;2.27;;
15624;SDS011;7912;51.376;6.126;2022-11-06T04:07:50;4.73;;;2.03;;
15624;SDS011;7912;51.376;6.126;2022-11-06T04:10:41;5.37;;;2.00;;
15624;SDS011;7912;51.376;6.126;2022-11-06T04:13:35;6.13;;;2.13;;
15624;SDS011;7912;51.376;6.126;2022-11-06T04:16:24;5.67;;;1.80;;
15624;SDS011;7912;51.376;6.126;2022-11-06T04:19:05;6.17;;;1.87;;
15624;SDS011;7912;51.376;6.126;2022-11-06T04:33:50;5.50;;;1.90;;
15624;SDS011;7912;51.376;6.126;2022-11-06T04:42:25;3.40;;;1.77;;
15624;SDS011;7912;51.376;6.126;2022-11-06T04:48:24;2.83;;;1.53;;
15624;SDS011;7912;51.376;6.126;2022-11-06T04:50:54;3.00;;;1.67;;
15624;SDS011;7912;51.376;6.126;2022-11-06T04:53:27;3.27;;;1.60;;
15624;SDS011;7912;51.376;6.126;2022-11-06T04:56:05;4.07;;;1.77;;
15624;SDS011;7912;51.376;6.126;2022-11-06T04:58:37;4.90;;;2.13;;
15624;SDS011;7912;51.376;6.126;2022-11-06T05:01:05;4.77;;;2.10;;
15624;SDS011;7912;51.376;6.126;2022-11-06T05:03:32;4.93;;;2.00;;
15624;SDS011;7912;51.376;6.126;2022-11-06T05:05:59;5.27;;;2.30;;
15624;SDS011;7912;51.376;6.126;2022-11-06T05:08:27;4.43;;;1.70;;
15624;SDS011;7912;51.376;6.126;2022-11-06T05:10:54;4.43;;;2.17;;
15624;SDS011;7912;51.376;6.126;2022-11-06T05:13:21;5.50;;;2.03;;
15624;SDS011;7912;51.376;6.126;2022-11-06T05:15:53;5.57;;;2.00;;
15624;SDS011;7912;51.376;6.126;2022-11-06T05:18:25;5.23;;;2.03;;
15624;SDS011;7912;51.376;6.126;2022-11-06T05:20:53;5.30;;;2.10;;
15624;SDS011;7912;51.376;6.126;2022-11-06T05:23:42;4.33;;;2.00;;
15624;SDS011;7912;51.376;6.126;2022-11-06T05:26:09;4.33;;;1.70;;
15624;SDS011;7912;51.376;6.126;2022-11-06T05:28:36;5.23;;;2.10;;
15624;SDS011;7912;51.376;6.126;2022-11-06T05:33:50;3.67;;;1.83;;
15624;SDS011;7912;51.376;6.126;2022-11-06T05:36:18;3.77;;;1.80;;
15624;SDS011;7912;51.376;6.126;2022-11-06T05:38:45;3.03;;;1.47;;
15624;SDS011;7912;51.376;6.126;2022-11-06T05:41:13;3.33;;;1.57;;
15624;SDS011;7912;51.376;6.126;2022-11-06T05:43:40;2.70;;;1.57;;
15624;SDS011;7912;51.376;6.126;2022-11-06T05:46:08;6.97;;;1.93;;
15624;SDS011;7912;51.376;6.126;2022-11-06T05:48:55;2.87;;;1.80;;
15624;SDS011;7912;51.376;6.126;2022-11-06T05:51:22;3.77;;;1.80;;
15624;SDS011;7912;51.376;6.126;2022-11-06T05:53:49;4.07;;;1.80;;
15624;SDS011;7912;51.376;6.126;2022-11-06T05:56:23;5.70;;;1.70;;
15624;SDS011;7912;51.376;6.126;2022-11-06T05:58:50;3.73;;;1.73;;
15624;SDS011;7912;51.376;6.126;2022-11-06T06:01:17;5.77;;;1.87;;
15624;SDS011;7912;51.376;6.126;2022-11-06T06:03:45;4.70;;;1.87;;
15624;SDS011;7912;51.376;6.126;2022-11-06T06:06:12;4.70;;;1.83;;
15624;SDS011;7912;51.376;6.126;2022-11-06T06:08:39;3.97;;;1.90;;
15624;SDS011;7912;51.376;6.126;2022-11-06T06:11:06;3.93;;;2.10;;
15624;SDS011;7912;51.376;6.126;2022-11-06T06:13:34;5.37;;;1.97;;
15624;SDS011;7912;51.376;6.126;2022-11-06T06:16:02;3.00;;;1.70;;
15624;SDS011;7912;51.376;6.126;2022-11-06T06:18:30;2.57;;;1.70;;
15624;SDS011;7912;51.376;6.126;2022-11-06T06:20:59;4.17;;;1.60;;
15624;SDS011;7912;51.376;6.126;2022-11-06T06:23:26;4.83;;;1.87;;
15624;SDS011;7912;51.376;6.126;2022-11-06T06:25:55;3.70;;;1.67;;
15624;SDS011;7912;51.376;6.126;2022-11-06T06:28:22;5.20;;;1.83;;
15624;SDS011;7912;51.376;6.126;2022-11-06T06:30:50;4.43;;;1.80;;
15624;SDS011;7912;51.376;6.126;2022-11-06T06:33:23;3.17;;;1.70;;
15624;SDS011;7912;51.376;6.126;2022-11-06T06:35:51;3.80;;;1.93;;
15624;SDS011;7912;51.376;6.126;2022-11-06T06:38:18;5.10;;;2.20;;
15624;SDS011;7912;51.376;6.126;2022-11-06T06:40:45;5.77;;;2.00;;
15624;SDS011;7912;51.376;6.126;2022-11-06T06:43:13;4.27;;;2.00;;
15624;SDS011;7912;51.376;6.126;2022-11-06T06:46:02;5.33;;;1.90;;
15624;SDS011;7912;51.376;6.126;2022-11-06T06:48:32;4.37;;;1.63;;
15624;SDS011;7912;51.376;6.126;2022-11-06T06:51:00;6.13;;;1.83;;
15624;SDS011;7912;51.376;6.126;2022-11-06T06:53:28;5.97;;;1.73;;
15624;SDS011;7912;51.376;6.126;2022-11-06T06:55:57;4.33;;;1.97;;
15624;SDS011;7912;51.376;6.126;2022-11-06T06:58:29;5.40;;;1.93;;
15624;SDS011;7912;51.376;6.126;2022-11-06T07:01:00;4.13;;;1.93;;
15624;SDS011;7912;51.376;6.126;2022-11-06T07:03:30;5.70;;;2.00;;
15624;SDS011;7912;51.376;6.126;2022-11-06T07:05:59;3.00;;;1.80;;
15624;SDS011;7912;51.376;6.126;2022-11-06T07:08:27;3.90;;;2.20;;
15624;SDS011;7912;51.376;6.126;2022-11-06T07:10:58;4.47;;;2.00;;
15624;SDS011;7912;51.376;6.126;2022-11-06T07:13:30;4.70;;;2.20;;
15624;SDS011;7912;51.376;6.126;2022-11-06T07:16:02;4.63;;;1.93;;
15624;SDS011;7912;51.376;6.126;2022-11-06T07:18:35;2.37;;;1.70;;
15624;SDS011;7912;51.376;6.126;2022-11-06T07:21:07;3.10;;;1.80;;
15624;SDS011;7912;51.376;6.126;2022-11-06T07:23:38;2.83;;;1.73;;
15624;SDS011;7912;51.376;6.126;2022-11-06T07:26:06;4.93;;;1.90;;
15624;SDS011;7912;51.376;6.126;2022-11-06T07:28:33;2.60;;;1.63;;
15624;SDS011;7912;51.376;6.126;2022-11-06T07:31:02;8.10;;;1.90;;
15624;SDS011;7912;51.376;6.126;2022-11-06T07:33:32;4.40;;;1.87;;
15624;SDS011;7912;51.376;6.126;2022-11-06T07:36:10;4.13;;;1.77;;
15624;SDS011;7912;51.376;6.126;2022-11-06T07:38:39;3.73;;;1.90;;
15624;SDS011;7912;51.376;6.126;2022-11-06T07:41:11;4.33;;;2.13;;
15624;SDS011;7912;51.376;6.126;2022-11-06T07:43:40;2.70;;;1.77;;
15624;SDS011;7912;51.376;6.126;2022-11-06T07:46:10;3.43;;;1.93;;
15624;SDS011;7912;51.376;6.126;2022-11-06T07:48:38;3.27;;;1.50;;
15624;SDS011;7912;51.376;6.126;2022-11-06T07:51:07;5.73;;;2.07;;
15624;SDS011;7912;51.376;6.126;2022-11-06T07:53:36;6.47;;;2.03;;
15624;SDS011;7912;51.376;6.126;2022-11-06T07:56:04;4.33;;;1.90;;
15624;SDS011;7912;51.376;6.126;2022-11-06T07:58:32;5.00;;;1.80;;
15624;SDS011;7912;51.376;6.126;2022-11-06T08:01:00;5.10;;;1.80;;
15624;SDS011;7912;51.376;6.126;2022-11-06T08:03:28;5.87;;;1.87;;
15624;SDS011;7912;51.376;6.126;2022-11-06T08:05:57;3.43;;;1.90;;
15624;SDS011;7912;51.376;6.126;2022-11-06T08:11:11;4.47;;;1.90;;
15624;SDS011;7912;51.376;6.126;2022-11-06T08:13:40;2.70;;;1.63;;
15624;SDS011;7912;51.376;6.126;2022-11-06T08:16:11;5.30;;;1.63;;
15624;SDS011;7912;51.376;6.126;2022-11-06T08:18:40;5.70;;;2.33;;
15624;SDS011;7912;51.376;6.126;2022-11-06T08:21:08;5.90;;;1.90;;
15624;SDS011;7912;51.376;6.126;2022-11-06T08:23:35;3.83;;;1.67;;
15624;SDS011;7912;51.376;6.126;2022-11-06T08:26:03;3.87;;;1.60;;
15624;SDS011;7912;51.376;6.126;2022-11-06T08:28:32;4.57;;;1.73;;
15624;SDS011;7912;51.376;6.126;2022-11-06T08:31:04;3.50;;;1.70;;
15624;SDS011;7912;51.376;6.126;2022-11-06T08:36:21;6.23;;;1.93;;
15624;SDS011;7912;51.376;6.126;2022-11-06T08:38:51;4.23;;;2.10;;
15624;SDS011;7912;51.376;6.126;2022-11-06T08:41:20;3.30;;;1.63;;
15624;SDS011;7912;51.376;6.126;2022-11-06T08:43:50;4.77;;;1.90;;
15624;SDS011;7912;51.376;6.126;2022-11-06T08:47:15;6.30;;;2.20;;
15624;SDS011;7912;51.376;6.126;2022-11-06T08:49:43;6.67;;;1.80;;
15624;SDS011;7912;51.376;6.126;2022-11-06T08:52:10;3.43;;;1.73;;
15624;SDS011;7912;51.376;6.126;2022-11-06T08:57:58;4.37;;;1.70;;
15624;SDS011;7912;51.376;6.126;2022-11-06T09:00:27;3.97;;;1.80;;
15624;SDS011;7912;51.376;6.126;2022-11-06T09:03:00;4.03;;;1.90;;
15624;SDS011;7912;51.376;6.126;2022-11-06T09:05:34;3.97;;;1.77;;
15624;SDS011;7912;51.376;6.126;2022-11-06T09:08:01;3.30;;;1.60;;
15624;SDS011;7912;51.376;6.126;2022-11-06T09:10:31;3.37;;;1.70;;
15624;SDS011;7912;51.376;6.126;2022-11-06T09:13:00;3.93;;;2.30;;
15624;SDS011;7912;51.376;6.126;2022-11-06T09:15:35;3.33;;;1.60;;
15624;SDS011;7912;51.376;6.126;2022-11-06T09:18:04;3.50;;;1.80;;
15624;SDS011;7912;51.376;6.126;2022-11-06T09:20:33;3.40;;;1.77;;
15624;SDS011;7912;51.376;6.126;2022-11-06T09:23:03;3.87;;;1.60;;
15624;SDS011;7912;51.376;6.126;2022-11-06T09:25:34;3.67;;;1.83;;
15624;SDS011;7912;51.376;6.126;2022-11-06T09:28:03;3.93;;;1.60;;
15624;SDS011;7912;51.376;6.126;2022-11-06T09:30:32;4.63;;;1.60;;
15624;SDS011;7912;51.376;6.126;2022-11-06T09:33:03;3.80;;;1.70;;
15624;SDS011;7912;51.376;6.126;2022-11-06T09:35:40;3.00;;;1.70;;
15624;SDS011;7912;51.376;6.126;2022-11-06T09:38:09;3.17;;;1.50;;
15624;SDS011;7912;51.376;6.126;2022-11-06T09:40:45;3.80;;;1.50;;
15624;SDS011;7912;51.376;6.126;2022-11-06T09:50:47;3.10;;;1.60;;
15624;SDS011;7912;51.376;6.126;2022-11-06T09:54:32;4.00;;;1.60;;
15624;SDS011;7912;51.376;6.126;2022-11-06T10:00:03;3.47;;;1.67;;
15624;SDS011;7912;51.376;6.126;2022-11-06T10:02:54;3.67;;;1.60;;
15624;SDS011;7912;51.376;6.126;2022-11-06T10:06:43;2.40;;;1.30;;
15624;SDS011;7912;51.376;6.126;2022-11-06T10:09:17;4.37;;;1.70;;
15624;SDS011;7912;51.376;6.126;2022-11-06T10:14:48;4.23;;;1.50;;
15624;SDS011;7912;51.376;6.126;2022-11-06T10:20:28;3.23;;;1.40;;
15624;SDS011;7912;51.376;6.126;2022-11-06T10:26:26;2.83;;;1.57;;
15624;SDS011;7912;51.376;6.126;2022-11-06T10:37:54;3.10;;;1.77;;
15624;SDS011;7912;51.376;6.126;2022-11-06T10:40:45;2.83;;;1.70;;
15624;SDS011;7912;51.376;6.126;2022-11-06T10:44:14;3.90;;;1.70;;
15624;SDS011;7912;51.376;6.126;2022-11-06T10:46:54;3.97;;;1.67;;
15624;SDS011;7912;51.376;6.126;2022-11-06T10:58:26;3.37;;;1.57;;
15624;SDS011;7912;51.376;6.126;2022-11-06T11:01:26;3.17;;;1.40;;
15624;SDS011;7912;51.376;6.126;2022-11-06T11:04:24;3.90;;;1.47;;
15624;SDS011;7912;51.376;6.126;2022-11-06T11:07:30;4.87;;;1.70;;
15624;SDS011;7912;51.376;6.126;2022-11-06T11:10:30;3.70;;;1.70;;
15624;SDS011;7912;51.376;6.126;2022-11-06T11:13:46;4.20;;;1.70;;
15624;SDS011;7912;51.376;6.126;2022-11-06T11:17:31;3.43;;;1.60;;
15624;SDS011;7912;51.376;6.126;2022-11-06T11:26:27;3.67;;;1.60;;
15624;SDS011;7912;51.376;6.126;2022-11-06T11:28:58;3.73;;;1.60;;
15624;SDS011;7912;51.376;6.126;2022-11-06T11:31:40;5.00;;;1.80;;
15624;SDS011;7912;51.376;6.126;2022-11-06T11:34:17;3.03;;;1.60;;
15624;SDS011;7912;51.376;6.126;2022-11-06T11:36:53;4.23;;;1.67;;
15624;SDS011;7912;51.376;6.126;2022-11-06T11:39:34;4.13;;;1.87;;
15624;SDS011;7912;51.376;6.126;2022-11-06T11:45:10;3.37;;;1.53;;
15624;SDS011;7912;51.376;6.126;2022-11-06T11:47:44;5.00;;;1.83;;
15624;SDS011;7912;51.376;6.126;2022-11-06T11:50:18;3.77;;;1.70;;
15624;SDS011;7912;51.376;6.126;2022-11-06T11:52:59;5.37;;;1.70;;
15624;SDS011;7912;51.376;6.126;2022-11-06T11:55:46;3.60;;;1.90;;
15624;SDS011;7912;51.376;6.126;2022-11-06T11:58:22;3.40;;;1.50;;
15624;SDS011;7912;51.376;6.126;2022-11-06T12:00:57;4.73;;;1.70;;
15624;SDS011;7912;51.376;6.126;2022-11-06T12:03:47;3.73;;;1.63;;
15624;SDS011;7912;51.376;6.126;2022-11-06T12:06:17;5.00;;;1.83;;
15624;SDS011;7912;51.376;6.126;2022-11-06T12:08:49;3.10;;;1.50;;
15624;SDS011;7912;51.376;6.126;2022-11-06T12:11:24;4.03;;;1.97;;
15624;SDS011;7912;51.376;6.126;2022-11-06T12:21:57;5.53;;;2.00;;
15624;SDS011;7912;51.376;6.126;2022-11-06T12:24:45;4.03;;;1.67;;
15624;SDS011;7912;51.376;6.126;2022-11-06T12:27:25;4.10;;;1.53;;
15624;SDS011;7912;51.376;6.126;2022-11-06T12:32:51;3.03;;;1.60;;
15624;SDS011;7912;51.376;6.126;2022-11-06T12:36:12;4.50;;;1.70;;
15624;SDS011;7912;51.376;6.126;2022-11-06T12:38:54;3.27;;;1.53;;
15624;SDS011;7912;51.376;6.126;2022-11-06T12:41:33;3.17;;;1.57;;
15624;SDS011;7912;51.376;6.126;2022-11-06T12:44:36;3.60;;;1.73;;
15624;SDS011;7912;51.376;6.126;2022-11-06T13:00:24;4.93;;;1.63;;
15624;SDS011;7912;51.376;6.126;2022-11-06T13:06:15;1.73;;;1.60;;
15624;SDS011;7912;51.376;6.126;2022-11-06T13:09:20;3.43;;;1.67;;
15624;SDS011;7912;51.376;6.126;2022-11-06T13:12:26;3.87;;;1.80;;
15624;SDS011;7912;51.376;6.126;2022-11-06T13:15:28;3.83;;;1.70;;
15624;SDS011;7912;51.376;6.126;2022-11-06T13:18:47;2.13;;;1.53;;
15624;SDS011;7912;51.376;6.126;2022-11-06T13:24:52;2.37;;;1.53;;
15624;SDS011;7912;51.376;6.126;2022-11-06T13:30:12;3.47;;;1.57;;
15624;SDS011;7912;51.376;6.126;2022-11-06T13:35:42;3.20;;;1.87;;
15624;SDS011;7912;51.376;6.126;2022-11-06T13:38:16;4.03;;;1.60;;
15624;SDS011;7912;51.376;6.126;2022-11-06T13:40:53;1.93;;;1.50;;
15624;SDS011;7912;51.376;6.126;2022-11-06T13:43:32;3.63;;;1.90;;
15624;SDS011;7912;51.376;6.126;2022-11-06T13:49:04;1.97;;;1.73;;
15624;SDS011;7912;51.376;6.126;2022-11-06T13:52:01;2.70;;;1.53;;
15624;SDS011;7912;51.376;6.126;2022-11-06T13:55:37;2.70;;;1.40;;
15624;SDS011;7912;51.376;6.126;2022-11-06T14:05:49;3.60;;;1.83;;
15624;SDS011;7912;51.376;6.126;2022-11-06T14:09:04;4.10;;;1.80;;
15624;SDS011;7912;51.376;6.126;2022-11-06T14:11:44;2.87;;;1.70;;
15624;SDS011;7912;51.376;6.126;2022-11-06T14:17:07;3.53;;;1.80;;
15624;SDS011;7912;51.376;6.126;2022-11-06T14:22:26;1.80;;;1.60;;
15624;SDS011;7912;51.376;6.126;2022-11-06T14:36:12;3.63;;;1.90;;
15624;SDS011;7912;51.376;6.126;2022-11-06T14:38:54;2.10;;;1.57;;
15624;SDS011;7912;51.376;6.126;2022-11-06T14:44:01;3.60;;;2.17;;
15624;SDS011;7912;51.376;6.126;2022-11-06T14:46:40;2.47;;;1.87;;
15624;SDS011;7912;51.376;6.126;2022-11-06T14:52:14;2.90;;;2.00;;
15624;SDS011;7912;51.376;6.126;2022-11-06T14:55:04;3.23;;;1.73;;
15624;SDS011;7912;51.376;6.126;2022-11-06T14:57:40;3.00;;;2.30;;
15624;SDS011;7912;51.376;6.126;2022-11-06T15:03:27;3.73;;;2.20;;
15624;SDS011;7912;51.376;6.126;2022-11-06T15:15:18;3.80;;;2.43;;
15624;SDS011;7912;51.376;6.126;2022-11-06T15:26:28;3.17;;;2.10;;
15624;SDS011;7912;51.376;6.126;2022-11-06T15:29:36;4.67;;;2.57;;
15624;SDS011;7912;51.376;6.126;2022-11-06T15:32:17;4.13;;;2.60;;
15624;SDS011;7912;51.376;6.126;2022-11-06T15:34:58;6.17;;;2.70;;
15624;SDS011;7912;51.376;6.126;2022-11-06T15:37:34;4.13;;;2.60;;
15624;SDS011;7912;51.376;6.126;2022-11-06T15:40:26;5.03;;;2.67;;
15624;SDS011;7912;51.376;6.126;2022-11-06T15:43:22;6.00;;;2.50;;
15624;SDS011;7912;51.376;6.126;2022-11-06T15:46:03;4.33;;;3.00;;
15624;SDS011;7912;51.376;6.126;2022-11-06T15:52:23;3.60;;;3.30;;
15624;SDS011;7912;51.376;6.126;2022-11-06T15:54:56;6.23;;;3.87;;
15624;SDS011;7912;51.376;6.126;2022-11-06T15:57:37;6.40;;;4.80;;
15624;SDS011;7912;51.376;6.126;2022-11-06T16:00:49;7.68;;;5.45;;
15624;SDS011;7912;51.376;6.126;2022-11-06T16:04:14;7.33;;;5.77;;
15624;SDS011;7912;51.376;6.126;2022-11-06T16:10:26;4.07;;;3.43;;
15624;SDS011;7912;51.376;6.126;2022-11-06T16:13:03;5.00;;;3.50;;
15624;SDS011;7912;51.376;6.126;2022-11-06T16:16:26;3.70;;;3.10;;
15624;SDS011;7912;51.376;6.126;2022-11-06T16:21:59;5.17;;;2.97;;
15624;SDS011;7912;51.376;6.126;2022-11-06T16:24:50;3.90;;;2.67;;
15624;SDS011;7912;51.376;6.126;2022-11-06T16:27:33;4.00;;;2.77;;
15624;SDS011;7912;51.376;6.126;2022-11-06T16:30:03;3.37;;;3.03;;
15624;SDS011;7912;51.376;6.126;2022-11-06T16:32:40;3.77;;;2.90;;
15624;SDS011;7912;51.376;6.126;2022-11-06T16:38:45;3.70;;;2.97;;
15624;SDS011;7912;51.376;6.126;2022-11-06T16:41:07;4.33;;;3.43;;
15624;SDS011;7912;51.376;6.126;2022-11-06T16:49:46;4.17;;;2.90;;
15624;SDS011;7912;51.376;6.126;2022-11-06T16:52:37;4.70;;;2.97;;
15624;SDS011;7912;51.376;6.126;2022-11-06T17:02:52;4.83;;;3.60;;
15624;SDS011;7912;51.376;6.126;2022-11-06T17:05:38;3.77;;;2.90;;
15624;SDS011;7912;51.376;6.126;2022-11-06T17:08:35;3.90;;;2.70;;
15624;SDS011;7912;51.376;6.126;2022-11-06T17:13:46;4.27;;;3.03;;
15624;SDS011;7912;51.376;6.126;2022-11-06T17:16:16;3.97;;;3.07;;
15624;SDS011;7912;51.376;6.126;2022-11-06T17:18:53;3.27;;;2.90;;
15624;SDS011;7912;51.376;6.126;2022-11-06T17:21:34;3.40;;;3.10;;
15624;SDS011;7912;51.376;6.126;2022-11-06T17:24:01;7.00;;;3.07;;
15624;SDS011;7912;51.376;6.126;2022-11-06T17:27:05;4.33;;;2.83;;
15624;SDS011;7912;51.376;6.126;2022-11-06T17:29:33;2.73;;;2.53;;
15624;SDS011;7912;51.376;6.126;2022-11-06T17:32:08;4.60;;;2.90;;
15624;SDS011;7912;51.376;6.126;2022-11-06T17:34:35;3.90;;;3.20;;
15624;SDS011;7912;51.376;6.126;2022-11-06T17:37:02;2.77;;;2.57;;
15624;SDS011;7912;51.376;6.126;2022-11-06T17:39:44;2.90;;;2.60;;
15624;SDS011;7912;51.376;6.126;2022-11-06T17:42:11;3.83;;;2.90;;
15624;SDS011;7912;51.376;6.126;2022-11-06T17:44:53;2.73;;;2.40;;
15624;SDS011;7912;51.376;6.126;2022-11-06T17:47:22;3.07;;;2.60;;
15624;SDS011;7912;51.376;6.126;2022-11-06T17:50:00;3.83;;;2.70;;
15624;SDS011;7912;51.376;6.126;2022-11-06T17:52:37;3.17;;;2.50;;
15624;SDS011;7912;51.376;6.126;2022-11-06T17:55:04;3.37;;;2.90;;
15624;SDS011;7912;51.376;6.126;2022-11-06T17:57:44;6.47;;;2.80;;
15624;SDS011;7912;51.376;6.126;2022-11-06T18:00:15;3.03;;;2.53;;
15624;SDS011;7912;51.376;6.126;2022-11-06T18:03:02;3.13;;;2.50;;
15624;SDS011;7912;51.376;6.126;2022-11-06T18:05:32;3.67;;;2.80;;
15624;SDS011;7912;51.376;6.126;2022-11-06T18:08:10;2.63;;;2.40;;
15624;SDS011;7912;51.376;6.126;2022-11-06T18:10:58;3.10;;;2.70;;
15624;SDS011;7912;51.376;6.126;2022-11-06T18:13:30;3.10;;;2.40;;
15624;SDS011;7912;51.376;6.126;2022-11-06T18:16:06;3.70;;;2.80;;
15624;SDS011;7912;51.376;6.126;2022-11-06T18:19:15;3.13;;;2.80;;
15624;SDS011;7912;51.376;6.126;2022-11-06T18:21:46;5.10;;;2.80;;
15624;SDS011;7912;51.376;6.126;2022-11-06T18:24:38;3.17;;;2.73;;
15624;SDS011;7912;51.376;6.126;2022-11-06T18:27:37;3.17;;;2.57;;
15624;SDS011;7912;51.376;6.126;2022-11-06T18:30:18;2.50;;;2.30;;
15624;SDS011;7912;51.376;6.126;2022-11-06T18:32:49;2.77;;;2.47;;
15624;SDS011;7912;51.376;6.126;2022-11-06T18:35:22;3.67;;;2.70;;
15624;SDS011;7912;51.376;6.126;2022-11-06T18:37:51;2.77;;;2.57;;
15624;SDS011;7912;51.376;6.126;2022-11-06T18:40:20;3.97;;;2.70;;
15624;SDS011;7912;51.376;6.126;2022-11-06T18:42:47;2.90;;;2.70;;
15624;SDS011;7912;51.376;6.126;2022-11-06T18:45:14;3.37;;;3.07;;
15624;SDS011;7912;51.376;6.126;2022-11-06T18:47:45;3.33;;;3.03;;
15624;SDS011;7912;51.376;6.126;2022-11-06T18:50:12;4.27;;;3.03;;
15624;SDS011;7912;51.376;6.126;2022-11-06T18:52:40;3.53;;;2.87;;
15624;SDS011;7912;51.376;6.126;2022-11-06T18:55:23;3.27;;;2.73;;
15624;SDS011;7912;51.376;6.126;2022-11-06T18:57:52;3.53;;;2.60;;
15624;SDS011;7912;51.376;6.126;2022-11-06T19:00:23;3.87;;;2.77;;
15624;SDS011;7912;51.376;6.126;2022-11-06T19:02:51;3.33;;;2.63;;
15624;SDS011;7912;51.376;6.126;2022-11-06T19:05:21;3.00;;;2.60;;
15624;SDS011;7912;51.376;6.126;2022-11-06T19:07:49;2.67;;;2.43;;
15624;SDS011;7912;51.376;6.126;2022-11-06T19:10:24;2.63;;;2.43;;
15624;SDS011;7912;51.376;6.126;2022-11-06T19:12:55;3.00;;;2.57;;
15624;SDS011;7912;51.376;6.126;2022-11-06T19:15:25;3.73;;;2.60;;
15624;SDS011;7912;51.376;6.126;2022-11-06T19:17:52;2.83;;;2.17;;
15624;SDS011;7912;51.376;6.126;2022-11-06T19:20:22;3.00;;;2.50;;
15624;SDS011;7912;51.376;6.126;2022-11-06T19:22:50;4.33;;;2.30;;
15624;SDS011;7912;51.376;6.126;2022-11-06T19:25:19;3.10;;;2.30;;
15624;SDS011;7912;51.376;6.126;2022-11-06T19:27:47;3.17;;;2.43;;
15624;SDS011;7912;51.376;6.126;2022-11-06T19:30:19;3.40;;;2.50;;
15624;SDS011;7912;51.376;6.126;2022-11-06T19:32:46;2.97;;;2.20;;
15624;SDS011;7912;51.376;6.126;2022-11-06T19:35:14;3.27;;;2.40;;
15624;SDS011;7912;51.376;6.126;2022-11-06T19:37:43;2.80;;;2.10;;
15624;SDS011;7912;51.376;6.126;2022-11-06T19:40:13;3.00;;;2.30;;
15624;SDS011;7912;51.376;6.126;2022-11-06T19:42:41;3.87;;;2.60;;
15624;SDS011;7912;51.376;6.126;2022-11-06T19:45:10;3.80;;;2.20;;
15624;SDS011;7912;51.376;6.126;2022-11-06T19:47:43;3.47;;;2.40;;
15624;SDS011;7912;51.376;6.126;2022-11-06T19:50:12;2.70;;;2.43;;
15624;SDS011;7912;51.376;6.126;2022-11-06T19:55:49;3.73;;;2.30;;
15624;SDS011;7912;51.376;6.126;2022-11-06T19:58:18;2.27;;;2.07;;
15624;SDS011;7912;51.376;6.126;2022-11-06T20:00:46;4.90;;;2.63;;
15624;SDS011;7912;51.376;6.126;2022-11-06T20:03:14;4.17;;;2.30;;
15624;SDS011;7912;51.376;6.126;2022-11-06T20:05:43;3.03;;;2.40;;
15624;SDS011;7912;51.376;6.126;2022-11-06T20:08:11;3.13;;;2.13;;